sensor_id;sensor_type;location;lat;lon;timestamp;temperature;humidity
42245;DHT22;27912;51.828;5.688;2022-07-23T00:00:03;15.90;99.90
42245;DHT22;27912;51.828;5.688;2022-07-23T00:02:29;15.80;99.90
42245;DHT22;27912;51.828;5.688;2022-07-23T00:04:54;15.80;99.90
42245;DHT22;27912;51.828;5.688;2022-07-23T00:07:20;15.60;99.90
42245;DHT22;27912;51.828;5.688;2022-07-23T00:09:45;15.60;99.90
42245;DHT22;27912;51.828;5.688;2022-07-23T00:12:11;15.50;99.90
42245;DHT22;27912;51.828;5.688;2022-07-23T00:14:36;15.40;99.90
42245;DHT22;27912;51.828;5.688;2022-07-23T00:17:02;15.30;99.90
42245;DHT22;27912;51.828;5.688;2022-07-23T00:19:28;15.30;99.90
42245;DHT22;27912;51.828;5.688;2022-07-23T00:21:54;15.30;99.90
42245;DHT22;27912;51.828;5.688;2022-07-23T00:24:20;15.20;99.90
42245;DHT22;27912;51.828;5.688;2022-07-23T00:26:45;15.20;99.90
42245;DHT22;27912;51.828;5.688;2022-07-23T00:29:11;15.10;99.90
42245;DHT22;27912;51.828;5.688;2022-07-23T00:31:37;15.10;99.90
42245;DHT22;27912;51.828;5.688;2022-07-23T00:34:03;15.10;99.90
42245;DHT22;27912;51.828;5.688;2022-07-23T00:36:29;15.10;99.90
42245;DHT22;27912;51.828;5.688;2022-07-23T00:38:56;15.00;99.90
42245;DHT22;27912;51.828;5.688;2022-07-23T00:41:23;15.00;99.90
42245;DHT22;27912;51.828;5.688;2022-07-23T00:43:49;15.00;99.90
42245;DHT22;27912;51.828;5.688;2022-07-23T00:46:20;14.90;99.90
42245;DHT22;27912;51.828;5.688;2022-07-23T00:48:45;14.90;99.90
42245;DHT22;27912;51.828;5.688;2022-07-23T00:51:11;14.90;99.90
42245;DHT22;27912;51.828;5.688;2022-07-23T00:53:36;14.80;99.90
42245;DHT22;27912;51.828;5.688;2022-07-23T00:56:02;14.80;99.90
42245;DHT22;27912;51.828;5.688;2022-07-23T00:58:28;14.70;99.90
42245;DHT22;27912;51.828;5.688;2022-07-23T01:00:53;14.80;99.90
42245;DHT22;27912;51.828;5.688;2022-07-23T01:03:19;14.70;99.90
42245;DHT22;27912;51.828;5.688;2022-07-23T01:05:44;14.70;99.90
42245;DHT22;27912;51.828;5.688;2022-07-23T01:08:10;14.60;99.90
42245;DHT22;27912;51.828;5.688;2022-07-23T01:10:36;14.60;99.90
42245;DHT22;27912;51.828;5.688;2022-07-23T01:13:03;14.50;99.90
42245;DHT22;27912;51.828;5.688;2022-07-23T01:15:30;14.40;99.90
42245;DHT22;27912;51.828;5.688;2022-07-23T01:17:56;14.40;99.90
42245;DHT22;27912;51.828;5.688;2022-07-23T01:20:22;14.40;99.90
42245;DHT22;27912;51.828;5.688;2022-07-23T01:22:48;14.40;99.90
42245;DHT22;27912;51.828;5.688;2022-07-23T01:25:14;14.30;99.90
42245;DHT22;27912;51.828;5.688;2022-07-23T01:27:39;14.40;99.90
42245;DHT22;27912;51.828;5.688;2022-07-23T01:30:06;14.30;99.90
42245;DHT22;27912;51.828;5.688;2022-07-23T01:32:32;14.30;99.90
42245;DHT22;27912;51.828;5.688;2022-07-23T01:34:57;14.30;99.90
42245;DHT22;27912;51.828;5.688;2022-07-23T01:37:23;14.30;99.90
42245;DHT22;27912;51.828;5.688;2022-07-23T01:39:49;14.40;99.90
42245;DHT22;27912;51.828;5.688;2022-07-23T01:42:14;14.30;99.90
42245;DHT22;27912;51.828;5.688;2022-07-23T01:44:40;14.30;99.90
42245;DHT22;27912;51.828;5.688;2022-07-23T01:47:05;14.30;99.90
42245;DHT22;27912;51.828;5.688;2022-07-23T01:49:31;14.30;99.90
42245;DHT22;27912;51.828;5.688;2022-07-23T01:51:56;14.30;99.90
42245;DHT22;27912;51.828;5.688;2022-07-23T01:54:26;14.30;99.90
42245;DHT22;27912;51.828;5.688;2022-07-23T01:56:52;14.30;99.90
42245;DHT22;27912;51.828;5.688;2022-07-23T01:59:17;14.30;99.90
42245;DHT22;27912;51.828;5.688;2022-07-23T02:01:43;14.20;99.90
42245;DHT22;27912;51.828;5.688;2022-07-23T02:04:08;14.30;99.90
42245;DHT22;27912;51.828;5.688;2022-07-23T02:06:34;14.20;99.90
42245;DHT22;27912;51.828;5.688;2022-07-23T02:08:59;14.20;99.90
42245;DHT22;27912;51.828;5.688;2022-07-23T02:11:25;14.20;99.90
42245;DHT22;27912;51.828;5.688;2022-07-23T02:13:50;14.10;99.90
42245;DHT22;27912;51.828;5.688;2022-07-23T02:16:16;14.10;99.90
42245;DHT22;27912;51.828;5.688;2022-07-23T02:18:41;14.10;99.90
42245;DHT22;27912;51.828;5.688;2022-07-23T02:21:07;14.10;99.90
42245;DHT22;27912;51.828;5.688;2022-07-23T02:23:32;14.10;99.90
42245;DHT22;27912;51.828;5.688;2022-07-23T02:25:58;14.20;99.90
42245;DHT22;27912;51.828;5.688;2022-07-23T02:28:24;14.10;99.90
42245;DHT22;27912;51.828;5.688;2022-07-23T02:30:50;14.10;99.90
42245;DHT22;27912;51.828;5.688;2022-07-23T02:33:15;14.00;99.90
42245;DHT22;27912;51.828;5.688;2022-07-23T02:35:41;14.00;99.90
42245;DHT22;27912;51.828;5.688;2022-07-23T02:38:07;14.00;99.90
42245;DHT22;27912;51.828;5.688;2022-07-23T02:40:32;14.00;99.90
42245;DHT22;27912;51.828;5.688;2022-07-23T02:42:58;13.90;99.90
42245;DHT22;27912;51.828;5.688;2022-07-23T02:45:23;13.90;99.90
42245;DHT22;27912;51.828;5.688;2022-07-23T02:47:49;13.80;99.90
42245;DHT22;27912;51.828;5.688;2022-07-23T02:50:14;13.80;99.90
42245;DHT22;27912;51.828;5.688;2022-07-23T02:52:40;13.80;99.90
42245;DHT22;27912;51.828;5.688;2022-07-23T02:55:06;13.70;99.90
42245;DHT22;27912;51.828;5.688;2022-07-23T02:57:32;13.70;99.90
42245;DHT22;27912;51.828;5.688;2022-07-23T02:59:58;13.70;99.90
42245;DHT22;27912;51.828;5.688;2022-07-23T03:02:23;13.70;99.90
42245;DHT22;27912;51.828;5.688;2022-07-23T03:04:50;13.60;99.90
42245;DHT22;27912;51.828;5.688;2022-07-23T03:07:17;13.60;99.90
42245;DHT22;27912;51.828;5.688;2022-07-23T03:09:43;13.60;99.90
42245;DHT22;27912;51.828;5.688;2022-07-23T03:12:08;13.60;99.90
42245;DHT22;27912;51.828;5.688;2022-07-23T03:14:34;13.60;99.90
42245;DHT22;27912;51.828;5.688;2022-07-23T03:16:59;13.50;99.90
42245;DHT22;27912;51.828;5.688;2022-07-23T03:19:25;13.50;99.90
42245;DHT22;27912;51.828;5.688;2022-07-23T03:21:51;13.50;99.90
42245;DHT22;27912;51.828;5.688;2022-07-23T03:24:17;13.40;99.90
42245;DHT22;27912;51.828;5.688;2022-07-23T03:26:45;13.40;99.90
42245;DHT22;27912;51.828;5.688;2022-07-23T03:29:11;13.40;99.90
42245;DHT22;27912;51.828;5.688;2022-07-23T03:31:37;13.40;99.90
42245;DHT22;27912;51.828;5.688;2022-07-23T03:34:02;13.30;99.90
42245;DHT22;27912;51.828;5.688;2022-07-23T03:36:28;13.30;99.90
42245;DHT22;27912;51.828;5.688;2022-07-23T03:38:53;13.20;99.90
42245;DHT22;27912;51.828;5.688;2022-07-23T03:41:20;13.20;99.90
42245;DHT22;27912;51.828;5.688;2022-07-23T03:43:46;13.10;99.90
42245;DHT22;27912;51.828;5.688;2022-07-23T03:46:13;13.00;99.90
42245;DHT22;27912;51.828;5.688;2022-07-23T03:48:39;13.00;99.90
42245;DHT22;27912;51.828;5.688;2022-07-23T03:51:04;13.00;99.90
42245;DHT22;27912;51.828;5.688;2022-07-23T03:53:31;12.90;99.90
42245;DHT22;27912;51.828;5.688;2022-07-23T03:55:56;12.90;99.90
42245;DHT22;27912;51.828;5.688;2022-07-23T03:58:22;12.90;99.90
42245;DHT22;27912;51.828;5.688;2022-07-23T04:00:47;12.90;99.90
42245;DHT22;27912;51.828;5.688;2022-07-23T04:03:13;12.80;99.90
42245;DHT22;27912;51.828;5.688;2022-07-23T04:05:38;12.80;99.90
42245;DHT22;27912;51.828;5.688;2022-07-23T04:08:04;12.80;99.90
42245;DHT22;27912;51.828;5.688;2022-07-23T04:10:30;12.80;99.90
42245;DHT22;27912;51.828;5.688;2022-07-23T04:12:55;12.80;99.90
42245;DHT22;27912;51.828;5.688;2022-07-23T04:15:21;12.90;99.90
42245;DHT22;27912;51.828;5.688;2022-07-23T04:17:46;12.90;99.90
42245;DHT22;27912;51.828;5.688;2022-07-23T04:20:12;13.00;99.90
42245;DHT22;27912;51.828;5.688;2022-07-23T04:22:38;13.10;99.90
42245;DHT22;27912;51.828;5.688;2022-07-23T04:25:04;13.10;99.90
42245;DHT22;27912;51.828;5.688;2022-07-23T04:27:30;13.10;99.90
42245;DHT22;27912;51.828;5.688;2022-07-23T04:29:58;13.20;99.90
42245;DHT22;27912;51.828;5.688;2022-07-23T04:32:24;13.20;99.90
42245;DHT22;27912;51.828;5.688;2022-07-23T04:34:49;13.20;99.90
42245;DHT22;27912;51.828;5.688;2022-07-23T04:37:15;13.20;99.90
42245;DHT22;27912;51.828;5.688;2022-07-23T04:39:41;13.20;99.90
42245;DHT22;27912;51.828;5.688;2022-07-23T04:42:06;13.20;99.90
42245;DHT22;27912;51.828;5.688;2022-07-23T04:44:32;13.30;99.90
42245;DHT22;27912;51.828;5.688;2022-07-23T04:46:57;13.30;99.90
42245;DHT22;27912;51.828;5.688;2022-07-23T04:49:23;13.30;99.90
42245;DHT22;27912;51.828;5.688;2022-07-23T04:51:48;13.30;99.90
42245;DHT22;27912;51.828;5.688;2022-07-23T04:54:14;13.30;99.90
42245;DHT22;27912;51.828;5.688;2022-07-23T04:56:39;13.30;99.90
42245;DHT22;27912;51.828;5.688;2022-07-23T04:59:05;13.40;99.90
42245;DHT22;27912;51.828;5.688;2022-07-23T05:01:30;13.40;99.90
42245;DHT22;27912;51.828;5.688;2022-07-23T05:03:56;13.50;99.90
42245;DHT22;27912;51.828;5.688;2022-07-23T05:06:21;13.50;99.90
42245;DHT22;27912;51.828;5.688;2022-07-23T05:08:47;13.60;99.90
42245;DHT22;27912;51.828;5.688;2022-07-23T05:11:12;13.60;99.90
42245;DHT22;27912;51.828;5.688;2022-07-23T05:13:38;13.70;99.90
42245;DHT22;27912;51.828;5.688;2022-07-23T05:16:04;13.80;99.90
42245;DHT22;27912;51.828;5.688;2022-07-23T05:18:30;13.90;99.90
42245;DHT22;27912;51.828;5.688;2022-07-23T05:20:56;14.00;99.90
42245;DHT22;27912;51.828;5.688;2022-07-23T05:23:21;14.10;99.90
42245;DHT22;27912;51.828;5.688;2022-07-23T05:25:47;14.40;99.90
42245;DHT22;27912;51.828;5.688;2022-07-23T05:28:12;14.70;99.90
42245;DHT22;27912;51.828;5.688;2022-07-23T05:30:38;15.20;99.90
42245;DHT22;27912;51.828;5.688;2022-07-23T05:33:03;15.60;99.90
42245;DHT22;27912;51.828;5.688;2022-07-23T05:35:29;16.10;99.90
42245;DHT22;27912;51.828;5.688;2022-07-23T05:37:55;16.50;99.90
42245;DHT22;27912;51.828;5.688;2022-07-23T05:40:20;16.90;99.90
42245;DHT22;27912;51.828;5.688;2022-07-23T05:42:46;17.20;99.90
42245;DHT22;27912;51.828;5.688;2022-07-23T05:45:11;17.40;99.90
42245;DHT22;27912;51.828;5.688;2022-07-23T05:47:55;17.50;99.90
42245;DHT22;27912;51.828;5.688;2022-07-23T05:50:20;17.50;99.90
42245;DHT22;27912;51.828;5.688;2022-07-23T05:52:46;17.50;99.90
42245;DHT22;27912;51.828;5.688;2022-07-23T05:55:12;17.60;99.90
42245;DHT22;27912;51.828;5.688;2022-07-23T05:57:38;17.60;99.90
42245;DHT22;27912;51.828;5.688;2022-07-23T06:00:05;17.50;99.90
42245;DHT22;27912;51.828;5.688;2022-07-23T06:02:31;17.50;99.90
42245;DHT22;27912;51.828;5.688;2022-07-23T06:04:57;17.50;99.90
42245;DHT22;27912;51.828;5.688;2022-07-23T06:07:22;17.50;99.90
42245;DHT22;27912;51.828;5.688;2022-07-23T06:09:48;17.50;99.90
42245;DHT22;27912;51.828;5.688;2022-07-23T06:12:17;17.40;99.90
42245;DHT22;27912;51.828;5.688;2022-07-23T06:14:43;17.40;99.90
42245;DHT22;27912;51.828;5.688;2022-07-23T06:17:08;17.30;99.90
42245;DHT22;27912;51.828;5.688;2022-07-23T06:19:34;17.30;99.90
42245;DHT22;27912;51.828;5.688;2022-07-23T06:22:00;17.30;99.90
42245;DHT22;27912;51.828;5.688;2022-07-23T06:24:25;17.40;99.90
42245;DHT22;27912;51.828;5.688;2022-07-23T06:26:51;17.50;99.90
42245;DHT22;27912;51.828;5.688;2022-07-23T06:29:16;17.50;99.90
42245;DHT22;27912;51.828;5.688;2022-07-23T06:31:42;17.50;99.90
42245;DHT22;27912;51.828;5.688;2022-07-23T06:34:07;17.60;99.90
42245;DHT22;27912;51.828;5.688;2022-07-23T06:36:33;17.60;99.90
42245;DHT22;27912;51.828;5.688;2022-07-23T06:38:58;17.60;99.90
42245;DHT22;27912;51.828;5.688;2022-07-23T06:41:24;17.60;99.90
42245;DHT22;27912;51.828;5.688;2022-07-23T06:43:49;17.70;99.90
42245;DHT22;27912;51.828;5.688;2022-07-23T06:46:15;17.70;99.90
42245;DHT22;27912;51.828;5.688;2022-07-23T06:48:41;17.80;99.90
42245;DHT22;27912;51.828;5.688;2022-07-23T06:51:06;17.90;99.90
42245;DHT22;27912;51.828;5.688;2022-07-23T06:53:32;18.00;99.90
42245;DHT22;27912;51.828;5.688;2022-07-23T06:55:57;18.00;99.90
42245;DHT22;27912;51.828;5.688;2022-07-23T06:58:23;18.10;99.90
42245;DHT22;27912;51.828;5.688;2022-07-23T07:00:48;18.20;99.90
42245;DHT22;27912;51.828;5.688;2022-07-23T07:03:14;18.20;99.90
42245;DHT22;27912;51.828;5.688;2022-07-23T07:05:39;18.30;99.90
42245;DHT22;27912;51.828;5.688;2022-07-23T07:08:05;18.30;99.90
42245;DHT22;27912;51.828;5.688;2022-07-23T07:10:31;18.40;99.90
42245;DHT22;27912;51.828;5.688;2022-07-23T07:12:57;18.40;99.90
42245;DHT22;27912;51.828;5.688;2022-07-23T07:15:22;18.50;99.90
42245;DHT22;27912;51.828;5.688;2022-07-23T07:17:48;18.60;99.90
42245;DHT22;27912;51.828;5.688;2022-07-23T07:20:13;18.60;99.90
42245;DHT22;27912;51.828;5.688;2022-07-23T07:22:39;18.70;99.90
42245;DHT22;27912;51.828;5.688;2022-07-23T07:25:06;18.70;99.90
42245;DHT22;27912;51.828;5.688;2022-07-23T07:27:31;18.80;99.90
42245;DHT22;27912;51.828;5.688;2022-07-23T07:29:57;18.80;99.90
42245;DHT22;27912;51.828;5.688;2022-07-23T07:32:22;18.90;99.90
42245;DHT22;27912;51.828;5.688;2022-07-23T07:34:48;19.00;99.90
42245;DHT22;27912;51.828;5.688;2022-07-23T07:37:13;19.00;99.90
42245;DHT22;27912;51.828;5.688;2022-07-23T07:39:39;19.10;99.90
42245;DHT22;27912;51.828;5.688;2022-07-23T07:42:04;19.10;99.90
42245;DHT22;27912;51.828;5.688;2022-07-23T07:44:30;19.20;99.90
42245;DHT22;27912;51.828;5.688;2022-07-23T07:46:56;19.30;99.90
42245;DHT22;27912;51.828;5.688;2022-07-23T07:49:21;19.40;99.90
42245;DHT22;27912;51.828;5.688;2022-07-23T07:51:47;19.50;99.90
42245;DHT22;27912;51.828;5.688;2022-07-23T07:54:13;19.60;99.90
42245;DHT22;27912;51.828;5.688;2022-07-23T07:56:38;19.70;99.90
42245;DHT22;27912;51.828;5.688;2022-07-23T07:59:04;19.70;99.90
42245;DHT22;27912;51.828;5.688;2022-07-23T08:01:29;19.80;99.90
42245;DHT22;27912;51.828;5.688;2022-07-23T08:03:55;19.80;99.90
42245;DHT22;27912;51.828;5.688;2022-07-23T08:06:21;19.90;99.90
42245;DHT22;27912;51.828;5.688;2022-07-23T08:08:46;20.00;99.90
42245;DHT22;27912;51.828;5.688;2022-07-23T08:11:12;20.00;99.90
42245;DHT22;27912;51.828;5.688;2022-07-23T08:13:37;20.10;99.90
42245;DHT22;27912;51.828;5.688;2022-07-23T08:16:03;20.10;99.90
42245;DHT22;27912;51.828;5.688;2022-07-23T08:18:29;20.10;99.90
42245;DHT22;27912;51.828;5.688;2022-07-23T08:20:54;20.20;99.90
42245;DHT22;27912;51.828;5.688;2022-07-23T08:23:20;20.20;99.90
42245;DHT22;27912;51.828;5.688;2022-07-23T08:25:46;20.30;99.90
42245;DHT22;27912;51.828;5.688;2022-07-23T08:28:13;20.30;99.90
42245;DHT22;27912;51.828;5.688;2022-07-23T08:30:40;20.40;99.90
42245;DHT22;27912;51.828;5.688;2022-07-23T08:33:08;20.50;99.90
42245;DHT22;27912;51.828;5.688;2022-07-23T08:35:41;20.60;99.90
42245;DHT22;27912;51.828;5.688;2022-07-23T08:38:09;20.70;99.90
42245;DHT22;27912;51.828;5.688;2022-07-23T08:40:50;20.70;99.90
42245;DHT22;27912;51.828;5.688;2022-07-23T08:43:21;20.80;99.90
42245;DHT22;27912;51.828;5.688;2022-07-23T08:45:52;20.80;99.90
42245;DHT22;27912;51.828;5.688;2022-07-23T08:48:20;20.80;99.90
42245;DHT22;27912;51.828;5.688;2022-07-23T08:50:50;20.80;99.90
42245;DHT22;27912;51.828;5.688;2022-07-23T08:53:17;20.80;99.80
42245;DHT22;27912;51.828;5.688;2022-07-23T08:55:44;20.90;99.90
42245;DHT22;27912;51.828;5.688;2022-07-23T08:58:11;21.00;99.90
42245;DHT22;27912;51.828;5.688;2022-07-23T09:00:37;21.10;99.90
42245;DHT22;27912;51.828;5.688;2022-07-23T09:03:03;21.20;99.60
42245;DHT22;27912;51.828;5.688;2022-07-23T09:05:28;21.20;99.60
42245;DHT22;27912;51.828;5.688;2022-07-23T09:10:56;21.30;99.30
42245;DHT22;27912;51.828;5.688;2022-07-23T09:13:35;21.40;99.30
42245;DHT22;27912;51.828;5.688;2022-07-23T09:16:16;21.40;99.00
42245;DHT22;27912;51.828;5.688;2022-07-23T09:18:46;21.50;98.70
42245;DHT22;27912;51.828;5.688;2022-07-23T09:21:16;21.60;98.50
42245;DHT22;27912;51.828;5.688;2022-07-23T09:26:35;21.60;97.90
42245;DHT22;27912;51.828;5.688;2022-07-23T09:31:54;21.80;97.10
42245;DHT22;27912;51.828;5.688;2022-07-23T09:34:23;21.80;96.90
42245;DHT22;27912;51.828;5.688;2022-07-23T09:36:57;21.80;96.70
42245;DHT22;27912;51.828;5.688;2022-07-23T09:39:32;21.90;96.30
42245;DHT22;27912;51.828;5.688;2022-07-23T09:42:13;22.00;96.00
42245;DHT22;27912;51.828;5.688;2022-07-23T09:44:49;22.00;95.80
42245;DHT22;27912;51.828;5.688;2022-07-23T09:47:17;22.00;95.80
42245;DHT22;27912;51.828;5.688;2022-07-23T09:50:04;22.10;95.70
42245;DHT22;27912;51.828;5.688;2022-07-23T09:52:33;22.20;95.50
42245;DHT22;27912;51.828;5.688;2022-07-23T09:55:01;22.20;95.60
42245;DHT22;27912;51.828;5.688;2022-07-23T09:57:27;22.20;95.40
42245;DHT22;27912;51.828;5.688;2022-07-23T09:59:57;22.30;95.40
42245;DHT22;27912;51.828;5.688;2022-07-23T10:02:24;22.40;94.70
42245;DHT22;27912;51.828;5.688;2022-07-23T10:04:53;22.40;94.60
42245;DHT22;27912;51.828;5.688;2022-07-23T10:07:23;22.50;94.50
42245;DHT22;27912;51.828;5.688;2022-07-23T10:09:52;22.70;94.10
42245;DHT22;27912;51.828;5.688;2022-07-23T10:12:18;22.80;94.10
42245;DHT22;27912;51.828;5.688;2022-07-23T10:14:59;22.80;94.10
42245;DHT22;27912;51.828;5.688;2022-07-23T10:17:25;22.90;94.00
42245;DHT22;27912;51.828;5.688;2022-07-23T10:19:52;23.00;93.80
42245;DHT22;27912;51.828;5.688;2022-07-23T10:22:24;23.00;93.70
42245;DHT22;27912;51.828;5.688;2022-07-23T10:33:24;23.20;93.50
42245;DHT22;27912;51.828;5.688;2022-07-23T10:36:19;23.20;93.00
42245;DHT22;27912;51.828;5.688;2022-07-23T10:39:03;23.30;93.10
42245;DHT22;27912;51.828;5.688;2022-07-23T10:41:40;23.50;93.30
42245;DHT22;27912;51.828;5.688;2022-07-23T10:44:11;23.60;92.50
42245;DHT22;27912;51.828;5.688;2022-07-23T10:49:30;23.70;91.80
42245;DHT22;27912;51.828;5.688;2022-07-23T10:54:48;23.90;91.80
42245;DHT22;27912;51.828;5.688;2022-07-23T10:57:17;23.70;91.70
42245;DHT22;27912;51.828;5.688;2022-07-23T11:02:38;23.30;92.70
42245;DHT22;27912;51.828;5.688;2022-07-23T11:05:06;23.40;92.50
42245;DHT22;27912;51.828;5.688;2022-07-23T11:07:34;23.60;92.00
42245;DHT22;27912;51.828;5.688;2022-07-23T11:10:00;23.80;91.70
42245;DHT22;27912;51.828;5.688;2022-07-23T11:17:23;24.20;90.40
42245;DHT22;27912;51.828;5.688;2022-07-23T11:25:11;24.20;90.00
42245;DHT22;27912;51.828;5.688;2022-07-23T11:27:42;24.20;89.80
42245;DHT22;27912;51.828;5.688;2022-07-23T11:30:09;24.30;88.90
42245;DHT22;27912;51.828;5.688;2022-07-23T11:32:38;24.30;89.10
42245;DHT22;27912;51.828;5.688;2022-07-23T11:35:22;24.40;89.00
42245;DHT22;27912;51.828;5.688;2022-07-23T11:37:48;24.60;89.20
42245;DHT22;27912;51.828;5.688;2022-07-23T11:40:17;24.70;87.80
42245;DHT22;27912;51.828;5.688;2022-07-23T11:43:03;24.70;88.00
42245;DHT22;27912;51.828;5.688;2022-07-23T11:45:41;24.80;87.90
42245;DHT22;27912;51.828;5.688;2022-07-23T11:48:09;24.90;87.60
42245;DHT22;27912;51.828;5.688;2022-07-23T11:50:35;24.90;87.50
42245;DHT22;27912;51.828;5.688;2022-07-23T11:53:01;24.90;87.10
42245;DHT22;27912;51.828;5.688;2022-07-23T11:55:27;25.00;86.80
42245;DHT22;27912;51.828;5.688;2022-07-23T11:57:54;25.00;85.60
42245;DHT22;27912;51.828;5.688;2022-07-23T12:00:26;25.00;84.70
42245;DHT22;27912;51.828;5.688;2022-07-23T12:02:56;25.00;84.20
42245;DHT22;27912;51.828;5.688;2022-07-23T12:05:24;25.00;83.50
42245;DHT22;27912;51.828;5.688;2022-07-23T12:07:52;25.10;82.70
42245;DHT22;27912;51.828;5.688;2022-07-23T12:10:35;25.10;82.50
42245;DHT22;27912;51.828;5.688;2022-07-23T12:13:18;25.10;82.10
42245;DHT22;27912;51.828;5.688;2022-07-23T12:15:48;25.10;82.20
42245;DHT22;27912;51.828;5.688;2022-07-23T12:18:19;25.10;83.00
42245;DHT22;27912;51.828;5.688;2022-07-23T12:20:47;25.30;81.10
42245;DHT22;27912;51.828;5.688;2022-07-23T12:23:15;25.30;80.20
42245;DHT22;27912;51.828;5.688;2022-07-23T12:25:43;25.30;80.30
42245;DHT22;27912;51.828;5.688;2022-07-23T12:28:12;25.50;80.10
42245;DHT22;27912;51.828;5.688;2022-07-23T12:30:45;25.50;80.00
42245;DHT22;27912;51.828;5.688;2022-07-23T12:33:26;25.50;80.20
42245;DHT22;27912;51.828;5.688;2022-07-23T12:35:54;25.50;79.00
42245;DHT22;27912;51.828;5.688;2022-07-23T12:38:22;25.60;78.20
42245;DHT22;27912;51.828;5.688;2022-07-23T12:40:56;25.60;76.90
42245;DHT22;27912;51.828;5.688;2022-07-23T12:43:30;25.60;76.20
42245;DHT22;27912;51.828;5.688;2022-07-23T12:46:14;25.60;75.90
42245;DHT22;27912;51.828;5.688;2022-07-23T12:48:52;25.60;74.90
42245;DHT22;27912;51.828;5.688;2022-07-23T12:51:23;25.70;74.40
42245;DHT22;27912;51.828;5.688;2022-07-23T12:53:49;25.80;73.80
42245;DHT22;27912;51.828;5.688;2022-07-23T12:56:18;25.80;73.10
42245;DHT22;27912;51.828;5.688;2022-07-23T12:58:48;25.80;73.30
42245;DHT22;27912;51.828;5.688;2022-07-23T13:06:28;26.00;72.80
42245;DHT22;27912;51.828;5.688;2022-07-23T13:08:53;26.10;73.00
42245;DHT22;27912;51.828;5.688;2022-07-23T13:11:19;26.20;72.90
42245;DHT22;27912;51.828;5.688;2022-07-23T13:13:44;26.20;73.00
42245;DHT22;27912;51.828;5.688;2022-07-23T13:16:10;26.30;71.90
42245;DHT22;27912;51.828;5.688;2022-07-23T13:18:35;26.40;72.20
42245;DHT22;27912;51.828;5.688;2022-07-23T13:21:02;26.60;72.30
42245;DHT22;27912;51.828;5.688;2022-07-23T13:23:28;26.60;71.80
42245;DHT22;27912;51.828;5.688;2022-07-23T13:25:54;26.70;71.40
42245;DHT22;27912;51.828;5.688;2022-07-23T13:28:20;26.70;71.20
42245;DHT22;27912;51.828;5.688;2022-07-23T13:30:48;26.80;71.30
42245;DHT22;27912;51.828;5.688;2022-07-23T13:33:18;26.90;70.60
42245;DHT22;27912;51.828;5.688;2022-07-23T13:35:44;26.90;70.40
42245;DHT22;27912;51.828;5.688;2022-07-23T13:38:10;26.80;68.90
42245;DHT22;27912;51.828;5.688;2022-07-23T13:40:38;26.80;69.70
42245;DHT22;27912;51.828;5.688;2022-07-23T13:43:09;26.90;69.40
42245;DHT22;27912;51.828;5.688;2022-07-23T13:45:34;27.00;68.20
42245;DHT22;27912;51.828;5.688;2022-07-23T13:48:00;26.90;67.80
42245;DHT22;27912;51.828;5.688;2022-07-23T13:50:25;27.00;67.90
42245;DHT22;27912;51.828;5.688;2022-07-23T13:52:51;27.10;68.00
42245;DHT22;27912;51.828;5.688;2022-07-23T13:55:17;27.20;67.30
42245;DHT22;27912;51.828;5.688;2022-07-23T13:57:42;27.10;67.70
42245;DHT22;27912;51.828;5.688;2022-07-23T14:00:09;27.10;67.80
42245;DHT22;27912;51.828;5.688;2022-07-23T14:02:37;27.20;67.70
42245;DHT22;27912;51.828;5.688;2022-07-23T14:05:05;27.50;67.10
42245;DHT22;27912;51.828;5.688;2022-07-23T14:07:31;27.50;66.10
42245;DHT22;27912;51.828;5.688;2022-07-23T14:09:56;27.50;65.70
42245;DHT22;27912;51.828;5.688;2022-07-23T14:12:25;27.60;65.80
42245;DHT22;27912;51.828;5.688;2022-07-23T14:14:51;27.70;65.50
42245;DHT22;27912;51.828;5.688;2022-07-23T14:17:17;27.80;64.80
42245;DHT22;27912;51.828;5.688;2022-07-23T14:19:42;28.00;64.70
42245;DHT22;27912;51.828;5.688;2022-07-23T14:22:08;28.10;64.00
42245;DHT22;27912;51.828;5.688;2022-07-23T14:24:34;28.30;64.10
42245;DHT22;27912;51.828;5.688;2022-07-23T14:27:00;28.50;63.60
42245;DHT22;27912;51.828;5.688;2022-07-23T14:29:27;28.70;63.50
42245;DHT22;27912;51.828;5.688;2022-07-23T14:31:52;28.80;62.40
42245;DHT22;27912;51.828;5.688;2022-07-23T14:34:18;28.80;62.50
42245;DHT22;27912;51.828;5.688;2022-07-23T14:36:44;28.80;62.50
42245;DHT22;27912;51.828;5.688;2022-07-23T14:39:09;28.80;62.60
42245;DHT22;27912;51.828;5.688;2022-07-23T14:41:37;28.90;61.90
42245;DHT22;27912;51.828;5.688;2022-07-23T14:44:03;29.00;61.40
42245;DHT22;27912;51.828;5.688;2022-07-23T14:46:29;29.10;61.70
42245;DHT22;27912;51.828;5.688;2022-07-23T14:48:55;29.20;61.50
42245;DHT22;27912;51.828;5.688;2022-07-23T14:51:20;29.30;60.50
42245;DHT22;27912;51.828;5.688;2022-07-23T14:53:46;29.30;60.00
42245;DHT22;27912;51.828;5.688;2022-07-23T14:56:12;29.20;60.40
42245;DHT22;27912;51.828;5.688;2022-07-23T14:58:39;29.20;59.90
42245;DHT22;27912;51.828;5.688;2022-07-23T15:01:04;29.10;60.00
42245;DHT22;27912;51.828;5.688;2022-07-23T15:03:30;29.10;60.10
42245;DHT22;27912;51.828;5.688;2022-07-23T15:05:56;29.00;59.70
42245;DHT22;27912;51.828;5.688;2022-07-23T15:08:21;28.80;60.70
42245;DHT22;27912;51.828;5.688;2022-07-23T15:10:47;28.70;60.70
42245;DHT22;27912;51.828;5.688;2022-07-23T15:13:12;28.80;59.90
42245;DHT22;27912;51.828;5.688;2022-07-23T15:15:38;29.00;59.00
42245;DHT22;27912;51.828;5.688;2022-07-23T15:18:04;29.10;58.90
42245;DHT22;27912;51.828;5.688;2022-07-23T15:20:29;29.20;58.50
42245;DHT22;27912;51.828;5.688;2022-07-23T15:22:56;29.20;58.20
42245;DHT22;27912;51.828;5.688;2022-07-23T15:25:21;29.00;58.40
42245;DHT22;27912;51.828;5.688;2022-07-23T15:27:47;28.90;58.50
42245;DHT22;27912;51.828;5.688;2022-07-23T15:30:13;28.90;58.40
42245;DHT22;27912;51.828;5.688;2022-07-23T15:32:38;29.00;58.60
42245;DHT22;27912;51.828;5.688;2022-07-23T15:35:04;29.10;58.30
42245;DHT22;27912;51.828;5.688;2022-07-23T15:37:32;29.30;58.10
42245;DHT22;27912;51.828;5.688;2022-07-23T15:39:57;29.40;58.80
42245;DHT22;27912;51.828;5.688;2022-07-23T15:42:23;29.60;58.40
42245;DHT22;27912;51.828;5.688;2022-07-23T15:44:49;29.90;58.40
42245;DHT22;27912;51.828;5.688;2022-07-23T15:47:17;30.30;57.60
42245;DHT22;27912;51.828;5.688;2022-07-23T15:49:43;30.50;56.30
42245;DHT22;27912;51.828;5.688;2022-07-23T15:52:09;31.00;55.70
42245;DHT22;27912;51.828;5.688;2022-07-23T15:54:35;31.50;54.80
42245;DHT22;27912;51.828;5.688;2022-07-23T15:57:03;31.90;54.10
42245;DHT22;27912;51.828;5.688;2022-07-23T15:59:29;32.40;53.40
42245;DHT22;27912;51.828;5.688;2022-07-23T16:01:55;32.70;52.50
42245;DHT22;27912;51.828;5.688;2022-07-23T16:04:20;32.60;51.60
42245;DHT22;27912;51.828;5.688;2022-07-23T16:06:46;32.70;51.50
42245;DHT22;27912;51.828;5.688;2022-07-23T16:09:11;33.00;51.00